Main page
METAR-TAF:

METAR-TAF

Airports :

Orléans – Bricy Air Base

Orléans, France

latitude: 47-59N, longitude: 001-45E, elevation: 126 m

Current weather observation

The report was made 40 minutes ago, at 23:30 UTC
Wind 5 kt from the North/Northwest
Temperature 5°C
Humidity 93%
Pressure 1010 hPa
Visibility: 9000 m

METAR: LFOJ 172330Z AUTO 33005KT 9000 NSC 05/04 Q1010

Time: 01:10 (00:10 UTC)

Forecast

The report was made 8 hours and 30 minutes ago, at 15:40 UTC
Forecast valid from 17 at 15 UTC to 18 at 15 UTC
Wind 5 kt from the North
Visibility 10 km or more
Broken clouds at a height of 2000 ft
Becoming
from 17 at 18 UTC to 17 at 20 UTC
Broken clouds at a height of 500 ft
Becoming
from 18 at 10 UTC to 18 at 12 UTC
Scattered clouds at a height of 700 ft
Becoming
from 18 at 12 UTC to 18 at 14 UTC
Wind 10 kt from the West
Visibility: 4000 m
Broken clouds at a height of 1200 ft
light rain

TAF: LFOJ 171540Z 1715/1815 35005KT 9999 BKN020 BECMG 1718/1720 BKN005 BECMG 1810/1812 SCT007 BECMG 1812/1814 27010KT 4000 -RA BKN012

Weather observations and forecasts of more than 4000 airports (METAR and TAF reports).

The available stations are represented by yellow and red dots on the map.

Hover mouse over dot to see the name of the station.

Then click to see weather observations and forecasts.

To change the map : click on the green buttons with a black cross to zoom in, on the green button with a dash to zoom out, or on the green arrows for adjacent maps.


METAR-TAF: